• Join FlightAware (Why Join?)
  • Login
  • US Flag 
Gobble Gobble! 
10:01PM EST


 

Airport Tracker/Info


-or-


 

Live Flight TrackerFlight Track Log ✈ N10933 ✈ 22-Apr-2013 ✈ KPTD - KYIP

Flight Track Log - Related Links

Times and Time Zones

All times are in EDT time to prevent confusion due to time zone crossing. See the N10933 flight status page for this flight to view local times or setup timezone preferences in your user account.

Time Position Orientation Groundspeed Altitude Reporting Facility
EDT Latitude Longitude Course Direction KTS MPH feet Rate Location/Type
09:41AM 44.6500 -75.0667 248° West 120 138 3,600  Level Montreal Center
09:42AM 44.6333 -75.1000 235° Southwest 120 138 4,600 900 Climbing Montreal Center
09:43AM 44.6167 -75.1500 245° Southwest 130 150 5,500 720 Climbing Montreal Center
09:43AM 44.6247 -75.1731 296° West 173 199 5,700 960 Climbing Boston Center
09:44AM 44.6131 -75.2339 255° West 146 168 7,000 1,140 Climbing Boston Center
09:45AM 44.6033 -75.2889 256° West 141 162 8,000 900 Climbing Boston Center
09:46AM 44.5744 -75.3480 248° West  Level FlightAware Approximate
09:46AM 44.5914 -75.3467 254° West 147 169 8,900  Level Boston Center
09:47AM 44.5778 -75.3897 246° West 147 169 10,000 840 Climbing Boston Center
09:48AM 44.5681 -75.4386 254° West 147 169 10,600 780 Climbing Boston Center
09:49AM 44.5519 -75.5047 251° West 147 169 11,600 660 Climbing Boston Center
09:50AM 44.5381 -75.5567 249° West 152 175 12,000 180 Climbing Boston Center
09:51AM 44.5194 -75.6197 248° West 157 181 12,000 60 Level Boston Center
09:52AM 44.5000 -75.6333 207° Southwest 170 196 12,100 60 Climbing Montreal Center
09:53AM 44.4833 -75.7167 254° West 180 207 12,100  Level Montreal Center
09:54AM 44.4667 -75.7833 251° West 180 207 12,100  Level Montreal Center
09:55AM 44.4500 -75.8500 251° West 180 207 12,100  Level Montreal Center
09:56AM 44.4333 -75.9167 251° West 180 207 12,100  Level Montreal Center
09:57AM 44.4333 -76.0000 270° West 180 207 12,100  Level Montreal Center
09:58AM 44.4167 -76.0667 251° West 180 207 12,100  Level Montreal Center
09:59AM 44.4000 -76.1167 245° Southwest 180 207 12,100  Level Montreal Center
10:00AM 44.3667 -76.1833 235° Southwest 180 207 12,100  Level Montreal Center
10:01AM 44.3500 -76.2500 251° West 180 207 12,100  Level Montreal Center
10:02AM 44.3500 -76.3167 270° West 180 207 12,100  Level Montreal Center
10:03AM 44.3167 -76.3833 235° Southwest 190 219 12,100  Level Montreal Center
10:04AM 44.3167 -76.4667 270° West 190 219 12,100  Level Montreal Center
10:05AM 44.2833 -76.5333 235° Southwest 190 219 12,100 -60 Level Montreal Center
10:06AM 44.2667 -76.6000 251° West 190 219 12,000 -60 Descending Montreal Center
10:07AM 44.2500 -76.6500 245° Southwest 190 219 12,000  Level Montreal Center
10:07AM 44.2500 -76.6833 270° West 190 219 12,000  Level Toronto Center
10:08AM 44.2333 -76.7500 251° West 180 207 12,000  Level Toronto Center
10:09AM 44.2167 -76.8167 251° West 180 207 12,000  Level Toronto Center
10:10AM 44.2000 -76.8833 251° West 180 207 12,000  Level Toronto Center
10:11AM 44.1833 -76.9167 235° Southwest 180 207 12,000  Level Montreal Center
10:12AM 44.1667 -77.0000 254° West 180 207 12,000  Level Montreal Center
10:13AM 44.1500 -77.0667 251° West 190 219 12,000  Level Montreal Center
10:14AM 44.1333 -77.1500 254° West 190 219 12,000  Level Toronto Center
10:15AM 44.1000 -77.2167 235° Southwest 190 219 12,000  Level Toronto Center
10:16AM 44.0833 -77.2833 251° West 180 207 12,000  Level Toronto Center
10:17AM 44.0667 -77.3500 251° West 180 207 12,000 -60 Level Toronto Center
10:18AM 44.0833 -77.4333 286° West 180 207 11,900  Descending Toronto Center
10:19AM 44.0667 -77.5000 251° West 180 207 12,000  Climbing Toronto Center
10:20AM 44.0333 -77.5667 235° Southwest 180 207 12,000  Level Toronto Center
10:21AM 44.0167 -77.6167 245° Southwest 180 207 12,000  Level Toronto Center
10:22AM 43.9833 -77.6833 235° Southwest 190 219 12,000  Level Toronto Center
10:23AM 43.9667 -77.7500 251° West 190 219 12,000  Level Toronto Center
10:24AM 43.9500 -77.8333 255° West 190 219 12,000  Level Toronto Center
10:25AM 43.9333 -77.9000 251° West 190 219 12,000  Level Toronto Center
10:26AM 43.9167 -77.9667 251° West 190 219 12,000  Level Toronto Center
10:27AM 43.9000 -78.0333 251° West 190 219 12,000 -60 Level Toronto Center
10:28AM 43.8833 -78.1000 251° West 190 219 11,900  Descending Toronto Center
10:29AM 43.8667 -78.1833 255° West 190 219 12,000  Climbing Toronto Center
10:30AM 43.8500 -78.2500 251° West 190 219 12,000 -60 Level Toronto Center
10:31AM 43.8333 -78.3000 245° Southwest 190 219 11,900 -60 Descending Toronto Center
10:32AM 43.8167 -78.3667 251° West 190 219 11,900  Level Toronto Center
10:33AM 43.8000 -78.4333 251° West 180 207 11,900  Level Toronto Center
10:34AM 43.7833 -78.5000 251° West 180 207 11,900  Level Toronto Center
10:35AM 43.7667 -78.5667 251° West 180 207 12,000  Climbing Toronto Center
10:36AM 43.7500 -78.6333 251° West 180 207 12,000  Level Toronto Center
10:37AM 43.7333 -78.7167 255° West 180 207 12,000  Level Toronto Center
10:38AM 43.7167 -78.7500 235° Southwest 180 207 12,000  Level Toronto Center
10:39AM 43.7000 -78.8333 255° West 190 219 12,000  Level Toronto Center
10:40AM 43.6833 -78.9000 251° West 190 219 12,000  Level Toronto Center
10:41AM 43.6500 -78.9667 235° Southwest 190 219 12,000  Level Toronto Center
10:42AM 43.6333 -79.0333 251° West 190 219 12,000  Level Toronto Center
10:43AM 43.6167 -79.1000 251° West 190 219 12,000  Level Toronto Center
10:44AM 43.6000 -79.1667 251° West 190 219 12,000  Level Toronto Center
10:45AM 43.5833 -79.2500 255° West 190 219 12,000  Level Toronto Center
10:46AM 43.5667 -79.2833 235° Southwest 190 219 12,000  Level Toronto Center
10:47AM 43.5333 -79.3500 235° Southwest 190 219 12,000  Level Toronto Center
10:48AM 43.5167 -79.4333 255° West 180 207 12,000  Level Toronto Center
10:49AM 43.5000 -79.5000 251° West 190 219 12,000  Level Toronto Center
10:50AM 43.4833 -79.5667 251° West 190 219 12,000  Level Toronto Center
10:51AM 43.4500 -79.6333 235° Southwest 190 219 12,000  Level Toronto Center
10:52AM 43.4333 -79.7000 251° West 190 219 12,000  Level Toronto Center
10:53AM 43.4167 -79.7500 245° Southwest 190 219 12,000  Level Toronto Center
10:54AM 43.4000 -79.8167 251° West 190 219 12,000  Level Toronto Center
10:55AM 43.3667 -79.8833 235° Southwest 190 219 12,000  Level Toronto Center
10:56AM 43.3500 -79.9500 251° West 190 219 12,000  Level Toronto Center
10:57AM 43.3333 -80.0167 251° West 190 219 12,000  Level Toronto Center
10:58AM 43.3167 -80.0833 251° West 190 219 12,100  Climbing Toronto Center
10:59AM 43.3000 -80.1667 255° West 190 219 12,100 -60 Level Toronto Center
11:00AM 43.2667 -80.2333 236° Southwest 190 219 12,000  Descending Toronto Center
11:01AM 43.2500 -80.3000 251° West 190 219 12,100  Climbing Toronto Center
11:02AM 43.2333 -80.3667 251° West 190 219 12,100 -60 Level Toronto Center
11:03AM 43.2167 -80.4333 251° West 190 219 12,000  Descending Toronto Center
11:04AM 43.2000 -80.4833 245° Southwest 190 219 12,100  Climbing Toronto Center
11:05AM 43.1833 -80.5667 255° West 190 219 12,100 -60 Level Toronto Center
11:06AM 43.1667 -80.6167 245° Southwest 190 219 12,000 -60 Descending Toronto Center
11:07AM 43.1500 -80.6833 251° West 190 219 12,000  Level Toronto Center
11:08AM 43.1333 -80.7500 251° West 190 219 12,100  Climbing Toronto Center
11:09AM 43.0833 -80.8167 224° Southwest 190 219 12,000 -60 Descending Toronto Center
11:10AM 43.0667 -80.8833 251° West 190 219 12,000  Level Toronto Center
11:11AM 43.0500 -80.9500 251° West 190 219 12,100  Climbing Toronto Center
11:12AM 43.0333 -81.0167 251° West 190 219 12,000  Descending Toronto Center
11:13AM 43.0167 -81.1000 255° West 190 219 12,100  Climbing Toronto Center
11:14AM 43.0000 -81.1667 251° West 190 219 12,000  Descending Toronto Center
11:15AM 43.0000 -81.2333 270° West 190 219 12,100  Climbing Toronto Center
11:16AM 42.9833 -81.3000 251° West 190 219 12,000  Descending Toronto Center
11:17AM 42.9667 -81.3667 251° West 190 219 12,100  Climbing Toronto Center
11:18AM 42.9500 -81.4333 251° West 190 219 12,000  Descending Toronto Center
11:19AM 42.9333 -81.5000 251° West 190 219 12,100  Climbing Toronto Center
11:20AM 42.9167 -81.5667 251° West 190 219 12,100  Level Toronto Center
11:21AM 42.9000 -81.6333 251° West 190 219 12,100  Level Toronto Center
11:22AM 42.8833 -81.7000 251° West 190 219 12,100  Level Toronto Center
11:23AM 42.8667 -81.7667 251° West 190 219 12,100  Level Toronto Center
11:24AM 42.8500 -81.8333 251° West 190 219 12,100  Level Toronto Center
11:25AM 42.8500 -81.9000 270° West 190 219 12,100 -60 Level Toronto Center
11:26AM 42.8167 -81.9667 236° Southwest 190 219 12,000 -240 Descending Toronto Center
11:27AM 42.8000 -82.0500 255° West 190 219 11,700 -600 Descending Toronto Center
11:28AM 42.7833 -82.1167 251° West 200 230 10,900 -840 Descending Toronto Center
11:29AM 42.7667 -82.2000 255° West 210 242 10,100 -420 Descending Toronto Center
11:30AM 42.7500 -82.2667 251° West 200 230 10,100 -60 Level Toronto Center
11:31AM 42.7333 -82.3333 251° West 190 219 10,000 -480 Descending Toronto Center
11:32AM 42.7167 -82.4000 251° West 190 219 9,200 -840 Descending Toronto Center
11:33AM 42.7000 -82.4667 251° West 200 230 8,400 -900 Descending Toronto Center
11:34AM 42.6833 -82.5333 251° West 200 230 7,500 -900 Descending Toronto Center
11:35AM 42.6333 -82.5833 216° Southwest 200 230 6,700 -840 Descending Toronto Center
11:36AM 42.6194 -82.6061 230° Southwest 199 229 6,400 -720 Descending Cleveland Center
11:37AM 42.5958 -82.6561 237° Southwest 192 221 5,900 -300 Descending Cleveland Center
11:38AM 42.5614 -82.7114 230° Southwest 164 189 5,900 -180 Level Cleveland Center
11:39AM 42.5131 -82.7267 193° South 172 198 5,600 -420 Descending Cleveland Center
11:40AM 42.4711 -82.7422 195° South 176 203 5,200 -300 Descending Cleveland Center
11:41AM 42.4208 -82.7658 199° South 169 194 5,000 -120 Descending Cleveland Center
11:42AM 42.3844 -82.8067 220° Southwest 165 190 5,000  Level Cleveland Center
11:43AM 42.3503 -82.8447 219° Southwest 166 191 5,000  Level Cleveland Center
11:44AM 42.3244 -82.8944 235° Southwest 168 193 5,000  Level Cleveland Center
11:45AM 42.2964 -82.9383 229° Southwest 167 192 5,000  Level Cleveland Center
11:46AM 42.2661 -82.9933 233° Southwest 170 196 5,000  Level Cleveland Center
11:47AM 42.2358 -83.0428 230° Southwest 169 194 5,000  Level Cleveland Center
11:48AM 42.2075 -83.0978 235° Southwest 171 197 5,000  Level Cleveland Center
11:49AM 42.2122 -83.1653 275° West 175 201 5,000  Level Cleveland Center
11:50AM 42.2150 -83.2269 274° West 177 204 5,000  Level Cleveland Center
11:51AM 42.2344 -83.2894 293° West 175 201 5,000  Level Cleveland Center
11:52AM 42.2539 -83.3492 294° West 162 186 5,000  Level Cleveland Center
11:53AM 42.2672 -83.4031 289° West 146 168 5,000 -540 Level Cleveland Center
11:54AM 42.2678 -83.4650 271° West 127 146 3,900 -960 Descending Cleveland Center
11:55AM 42.2881 -83.4883 320° Northwest 129 148 2,900 -1,020 Descending Cleveland Center
11:56AM 42.2756 -83.4850 169° South 103 119 2,200 -960 Descending Cleveland Center
11:57AM 42.2539 -83.5119 223° Southwest 88 101 1,200 -900 Descending Cleveland Center